Time;durP1;ratioP1;P1;durP2;ratioP2;P2;SDS_P1;SDS_P2;PMS_P1;PMS_P2;Temp;Humidity;BMP_temperature;BMP_pressure;BME280_temperature;BME280_humidity;BME280_pressure;Samples;Min_cycle;Max_cycle;Signal;HPM_P1;HPM_P2
2023/11/16 00:01:54;;;;;;;;;;;;;;;7.69;100.00;101158.88;6188718;22;20058;-79
2023/11/16 00:04:26;;;;;;;;;;;;;;;7.70;100.00;101148.97;6184638;23;19916;-79
2023/11/16 00:10:16;;;;;;;;;;;;;;;7.80;100.00;101144.28;6145007;22;19931;-79
2023/11/16 00:13:19;;;;;;;;;;;;;;;7.76;100.00;101148.28;6189537;23;19921;-79
2023/11/16 00:15:44;;;;;;;;;;;;;;;7.81;100.00;101145.09;6183901;23;20219;-79
2023/11/16 00:21:41;;;;;;;;;;;;;;;7.89;100.00;101150.44;6150253;23;19917;-79
2023/11/16 00:27:26;;;;;;;;;;;;;;;7.79;100.00;101152.47;6101827;23;19967;-79
2023/11/16 00:30:19;;;;;;;;;;;;;;;7.73;100.00;101170.06;6149328;23;19913;-79
2023/11/16 00:32:44;;;;;;;;;;;;;;;7.67;100.00;101171.59;6207147;23;20317;-79
2023/11/16 00:35:20;;;;;;;;;;;;;;;7.71;100.00;101156.84;6268008;23;19972;-79
2023/11/16 00:38:01;;;;;;;;;;;;;;;7.69;100.00;101164.22;6249708;23;19970;-79
2023/11/16 00:40:32;;;;;;;;;;;;;;;7.69;100.00;101164.22;6233034;23;19938;-79
2023/11/16 00:43:23;;;;;;;;;;;;;;;7.84;100.00;101163.53;6189666;23;19962;-79
2023/11/16 00:45:52;;;;;;;;;;;;;;;7.72;100.00;101158.53;6245817;23;19912;-79
2023/11/16 00:48:36;;;;;;;;;;;;;;;7.77;100.00;101173.25;6245652;23;20277;-79
2023/11/16 00:51:19;;;;;;;;;;;;;;;7.79;100.00;101168.53;6243154;23;19922;-79
2023/11/16 00:53:56;;;;;;;;;;;;;;;7.75;100.00;101162.69;6244856;23;19998;-79
2023/11/16 01:02:37;;;;;;;;;;;;;;;7.85;100.00;101167.88;6194500;23;19918;-79
2023/11/16 01:05:04;;;;;;;;;;;;;;;7.72;100.00;101163.88;6244121;23;20003;-79
2023/11/16 01:07:43;;;;;;;;;;;;;;;7.91;100.00;101166.34;6243788;23;19912;-80
2023/11/16 01:10:24;;;;;;;;;;;;;;;7.79;100.00;101169.41;6245509;23;19970;-79
2023/11/16 01:12:59;;;;;;;;;;;;;;;7.68;100.00;101172.41;6245498;23;19911;-79
2023/11/16 01:15:39;;;;;;;;;;;;;;;7.63;100.00;101170.25;6245421;23;19970;-79
2023/11/16 01:18:26;;;;;;;;;;;;;;;7.64;100.00;101171.09;6243443;23;19923;-79
2023/11/16 01:21:25;;;;;;;;;;;;;;;7.62;100.00;101171.25;6243132;23;19946;-80
2023/11/16 01:24:02;;;;;;;;;;;;;;;7.64;100.00;101174.59;6219342;23;19914;-80
2023/11/16 01:26:29;;;;;;;;;;;;;;;7.63;100.00;101175.59;6242922;23;19950;-79
2023/11/16 01:29:22;;;;;;;;;;;;;;;7.58;100.00;101188.69;6242413;23;19916;-80
2023/11/16 01:31:54;;;;;;;;;;;;;;;7.59;100.00;101187.66;6244017;23;20287;-79
2023/11/16 01:34:25;;;;;;;;;;;;;;;7.58;100.00;101188.69;6242303;23;19911;-80
2023/11/16 01:36:54;;;;;;;;;;;;;;;7.56;100.00;101188.84;6243557;23;19918;-79
2023/11/16 01:39:25;;;;;;;;;;;;;;;7.43;100.00;101191.22;6245208;23;19918;-79
2023/11/16 01:41:50;;;;;;;;;;;;;;;7.43;100.00;101180.50;6241751;23;19912;-79
2023/11/16 01:44:27;;;;;;;;;;;;;;;7.34;100.00;101187.69;6243539;23;19938;-79
2023/11/16 01:47:13;;;;;;;;;;;;;;;7.32;100.00;101195.06;6244706;23;19991;-79
2023/11/16 01:49:39;;;;;;;;;;;;;;;7.29;100.00;101195.38;6242469;23;20277;-79
2023/11/16 01:52:19;;;;;;;;;;;;;;;7.23;100.00;101191.53;6243765;23;19969;-79
2023/11/16 01:54:54;;;;;;;;;;;;;;;7.18;100.00;101203.75;6243106;23;19958;-79
2023/11/16 01:57:25;;;;;;;;;;;;;;;7.15;100.00;101204.91;6244038;23;19907;-79
2023/11/16 02:00:19;;;;;;;;;;;;;;;7.08;100.00;101220.78;6229802;22;20002;-79
2023/11/16 02:02:44;;;;;;;;;;;;;;;7.05;100.00;101226.50;6182839;23;19916;-80
2023/11/16 02:05:21;;;;;;;;;;;;;;;7.00;100.00;101223.47;6180469;23;20288;-80
2023/11/16 02:07:46;;;;;;;;;;;;;;;6.99;100.00;101227.16;6184207;23;19994;-80
2023/11/16 02:10:30;;;;;;;;;;;;;;;6.91;100.00;101227.13;6245386;23;20332;-80
2023/11/16 02:15:58;;;;;;;;;;;;;;;6.90;100.00;101222.75;6245454;23;19919;-81
2023/11/16 02:18:33;;;;;;;;;;;;;;;6.91;100.00;101216.41;6245455;23;19912;-80
2023/11/16 02:20:58;;;;;;;;;;;;;;;6.87;100.00;101221.25;6245136;23;19912;-81
2023/11/16 02:23:24;;;;;;;;;;;;;;;6.81;100.00;101224.56;6218134;23;19918;-81
2023/11/16 02:26:01;;;;;;;;;;;;;;;6.80;100.00;101217.53;6245904;23;19915;-81
2023/11/16 02:28:27;;;;;;;;;;;;;;;6.78;100.00;101217.72;6245300;23;20014;-81
2023/11/16 02:31:28;;;;;;;;;;;;;;;6.83;100.00;101219.91;6245515;23;19994;-81
2023/11/16 02:33:53;;;;;;;;;;;;;;;6.75;100.00;101223.41;6245104;23;19911;-81
2023/11/16 02:36:21;;;;;;;;;;;;;;;6.70;100.00;101227.56;6244992;23;19918;-81
2023/11/16 02:38:55;;;;;;;;;;;;;;;6.65;100.00;101225.38;6245787;23;19934;-80
2023/11/16 02:41:26;;;;;;;;;;;;;;;6.64;100.00;101223.69;6261705;22;19920;-80
2023/11/16 02:47:28;;;;;;;;;;;;;;;6.68;100.00;101220.53;6246177;23;20017;-80
2023/11/16 02:49:58;;;;;;;;;;;;;;;6.65;100.00;101223.53;6243834;23;19950;-81
2023/11/16 02:55:26;;;;;;;;;;;;;;;6.65;100.00;101217.34;6244284;23;20244;-80
2023/11/16 02:57:55;;;;;;;;;;;;;;;6.61;100.00;101214.19;6244048;23;19911;-79
2023/11/16 03:00:20;;;;;;;;;;;;;;;6.62;100.00;101204.31;6245949;23;19919;-79
2023/11/16 03:02:45;;;;;;;;;;;;;;;6.53;100.00;101201.56;6245446;23;19938;-76
2023/11/16 03:05:12;;;;;;;;;;;;;;;6.49;100.00;101200.25;6243492;23;19939;-77
2023/11/16 03:07:39;;;;;;;;;;;;;;;6.38;100.00;101197.84;6244209;23;20271;-76
2023/11/16 03:10:07;;;;;;;;;;;;;;;6.33;100.00;101201.00;6245025;23;19947;-76
2023/11/16 03:12:32;;;;;;;;;;;;;;;6.44;100.00;101210.59;6243117;23;19994;-76
2023/11/16 03:14:58;;;;;;;;;;;;;;;6.37;100.00;101206.88;6245556;23;19931;-76
2023/11/16 03:17:23;;;;;;;;;;;;;;;6.25;100.00;101198.31;6245160;23;20317;-76
2023/11/16 03:19:48;;;;;;;;;;;;;;;6.26;100.00;101204.47;6244612;23;19912;-76
2023/11/16 03:22:14;;;;;;;;;;;;;;;6.15;100.00;101206.44;6246095;23;19949;-76
2023/11/16 03:24:39;;;;;;;;;;;;;;;6.07;100.00;101190.34;6245093;23;19951;-76
2023/11/16 03:27:05;;;;;;;;;;;;;;;6.00;100.00;101198.16;6245710;23;19966;-76
2023/11/16 03:29:34;;;;;;;;;;;;;;;6.03;100.00;101194.34;6246796;23;19916;-76
2023/11/16 03:31:59;;;;;;;;;;;;;;;6.01;100.00;101202.53;6246810;23;19970;-76
2023/11/16 03:34:24;;;;;;;;;;;;;;;5.98;100.00;101204.66;6245508;23;19915;-76
2023/11/16 03:36:50;;;;;;;;;;;;;;;5.95;100.00;101191.59;6246787;23;19922;-76
2023/11/16 03:39:17;;;;;;;;;;;;;;;5.96;100.00;101193.28;6246889;23;20299;-76
2023/11/16 03:41:42;;;;;;;;;;;;;;;5.90;100.00;101189.41;6246677;23;19961;-75
2023/11/16 03:44:08;;;;;;;;;;;;;;;5.90;100.00;101195.56;6248637;23;20324;-76
2023/11/16 03:46:33;;;;;;;;;;;;;;;5.83;100.00;101194.50;6248814;23;19912;-76
2023/11/16 03:48:59;;;;;;;;;;;;;;;5.88;100.00;101202.09;6247051;23;20305;-76
2023/11/16 03:51:30;;;;;;;;;;;;;;;5.81;100.00;101206.38;6227498;23;19919;-76
2023/11/16 03:53:58;;;;;;;;;;;;;;;5.77;100.00;101206.66;6243950;23;19915;-76
2023/11/16 03:56:23;;;;;;;;;;;;;;;5.73;100.00;101209.81;6244637;23;19946;-76
2023/11/16 03:58:48;;;;;;;;;;;;;;;5.71;100.00;101195.78;6244501;23;19915;-76
2023/11/16 04:01:13;;;;;;;;;;;;;;;5.85;100.00;101202.38;6244595;23;20030;-76
2023/11/16 04:03:39;;;;;;;;;;;;;;;5.86;100.00;101188.88;6243490;23;20288;-76
2023/11/16 04:06:04;;;;;;;;;;;;;;;5.79;100.00;101195.84;6244240;23;20241;-75
2023/11/16 04:08:30;;;;;;;;;;;;;;;5.75;100.00;101200.66;6243765;23;19911;-76
2023/11/16 04:10:55;;;;;;;;;;;;;;;5.75;100.00;101205.16;6244694;23;20668;-76
2023/11/16 04:13:20;;;;;;;;;;;;;;;5.82;100.00;101208.03;6247880;23;19911;-76
2023/11/16 04:15:46;;;;;;;;;;;;;;;5.92;100.00;101203.41;6247356;23;20511;-75
2023/11/16 04:18:12;;;;;;;;;;;;;;;5.94;100.00;101206.78;6245848;23;19918;-76
2023/11/16 04:20:37;;;;;;;;;;;;;;;5.92;100.00;101208.75;6217552;23;19939;-76
2023/11/16 04:23:02;;;;;;;;;;;;;;;5.82;100.00;101203.56;6242183;23;19916;-75
2023/11/16 04:25:28;;;;;;;;;;;;;;;5.73;100.00;101194.66;6243715;23;19911;-76
2023/11/16 04:27:59;;;;;;;;;;;;;;;5.73;100.00;101194.66;6244286;23;20424;-76
2023/11/16 04:30:28;;;;;;;;;;;;;;;5.76;100.00;101198.81;6218036;23;20248;-76
2023/11/16 04:32:57;;;;;;;;;;;;;;;5.85;100.00;101197.88;6243375;23;20152;-76
2023/11/16 04:35:22;;;;;;;;;;;;;;;5.95;100.00;101207.63;6243654;23;19962;-76
2023/11/16 04:37:49;;;;;;;;;;;;;;;5.90;100.00;101206.25;6244061;23;19912;-76
2023/11/16 04:40:14;;;;;;;;;;;;;;;5.88;100.00;101202.91;6244648;23;19977;-76
2023/11/16 04:42:42;;;;;;;;;;;;;;;5.94;100.00;101198.75;6243654;23;19923;-76
2023/11/16 04:45:11;;;;;;;;;;;;;;;5.79;100.00;101193.19;6246133;23;19962;-76
2023/11/16 04:47:45;;;;;;;;;;;;;;;5.85;100.00;101189.84;6256868;22;19931;-77
2023/11/16 04:50:13;;;;;;;;;;;;;;;5.85;100.00;101197.06;6254195;22;19939;-76
2023/11/16 04:52:38;;;;;;;;;;;;;;;5.81;100.00;101185.84;6217189;23;20344;-77
2023/11/16 04:55:04;;;;;;;;;;;;;;;5.65;100.00;101185.75;6214077;23;19908;-76
2023/11/16 04:57:29;;;;;;;;;;;;;;;5.66;100.00;101192.72;6213000;23;19943;-76
2023/11/16 04:59:55;;;;;;;;;;;;;;;5.73;100.00;101196.47;6214996;23;19908;-76
2023/11/16 05:02:21;;;;;;;;;;;;;;;5.73;100.00;101194.66;6186645;23;20011;-76
2023/11/16 05:04:46;;;;;;;;;;;;;;;5.53;100.00;101198.50;6213227;23;19916;-77
2023/11/16 05:07:12;;;;;;;;;;;;;;;5.58;100.00;101199.72;6215004;23;20515;-76
2023/11/16 05:09:37;;;;;;;;;;;;;;;5.58;100.00;101207.72;6214220;23;20656;-76
2023/11/16 05:12:02;;;;;;;;;;;;;;;5.50;100.00;101202.31;6213546;23;20317;-77
2023/11/16 05:14:28;;;;;;;;;;;;;;;5.44;100.00;101200.28;6217443;23;19911;-76
2023/11/16 05:16:53;;;;;;;;;;;;;;;5.41;100.00;101206.72;6214417;23;19939;-75
2023/11/16 05:19:18;;;;;;;;;;;;;;;5.37;100.00;101204.53;6215698;23;19922;-76
2023/11/16 05:21:44;;;;;;;;;;;;;;;5.38;100.00;101207.06;6216054;23;19916;-76
2023/11/16 05:24:09;;;;;;;;;;;;;;;5.35;100.00;101212.72;6213195;23;19915;-76
2023/11/16 05:26:36;;;;;;;;;;;;;;;5.39;100.00;101210.56;6212888;23;20003;-76
2023/11/16 05:29:02;;;;;;;;;;;;;;;5.32;100.00;101197.81;6212696;23;19920;-76
2023/11/16 05:31:27;;;;;;;;;;;;;;;5.32;100.00;101197.81;6186816;23;19957;-76
2023/11/16 05:33:56;;;;;;;;;;;;;;;5.30;100.00;101205.13;6211913;23;19923;-79
2023/11/16 05:36:22;;;;;;;;;;;;;;;5.24;100.00;101199.56;6213383;23;20282;-76
2023/11/16 05:38:47;;;;;;;;;;;;;;;5.27;100.00;101200.13;6214234;23;19995;-77
2023/11/16 05:41:13;;;;;;;;;;;;;;;5.25;100.00;101210.13;6211993;23;20321;-76
2023/11/16 05:43:39;;;;;;;;;;;;;;;5.19;100.00;101208.06;6214266;23;19912;-78
2023/11/16 05:46:05;;;;;;;;;;;;;;;5.29;100.00;101214.16;6213663;23;19912;-80
2023/11/16 05:48:32;;;;;;;;;;;;;;;5.34;100.00;101218.19;6210310;23;19912;-79
2023/11/16 05:50:58;;;;;;;;;;;;;;;5.39;100.00;101215.91;6212997;23;19927;-80
2023/11/16 05:53:38;;;;;;;;;;;;;;;5.29;100.00;101208.81;6211491;23;19912;-80
2023/11/16 05:56:03;;;;;;;;;;;;;;;5.24;100.00;101202.25;6213529;23;19939;-80
2023/11/16 05:58:29;;;;;;;;;;;;;;;5.22;100.00;101199.75;6213052;23;20281;-80
2023/11/16 06:01:00;;;;;;;;;;;;;;;5.19;100.00;101194.69;6213238;23;19915;-80
2023/11/16 06:03:27;;;;;;;;;;;;;;;5.16;100.00;101200.34;6213328;23;19927;-80
2023/11/16 06:05:53;;;;;;;;;;;;;;;5.04;100.00;101197.06;6214260;23;19919;-81
2023/11/16 06:08:18;;;;;;;;;;;;;;;5.06;100.00;101197.75;6212665;23;19912;-80
2023/11/16 06:10:43;;;;;;;;;;;;;;;4.89;100.00;101194.09;6212476;23;20342;-80
2023/11/16 06:13:10;;;;;;;;;;;;;;;4.88;100.00;101195.09;6212891;23;20340;-80
2023/11/16 06:15:35;;;;;;;;;;;;;;;4.80;100.00;101208.31;6200658;23;19927;-80
2023/11/16 06:18:02;;;;;;;;;;;;;;;4.74;100.00;101201.75;6188708;22;19924;-81
2023/11/16 06:20:28;;;;;;;;;;;;;;;4.78;100.00;101197.81;6184207;23;19912;-80
2023/11/16 06:22:53;;;;;;;;;;;;;;;4.76;100.00;101196.28;6184217;23;19961;-80
2023/11/16 06:25:18;;;;;;;;;;;;;;;4.63;100.00;101196.66;6182880;23;19920;-78
2023/11/16 06:27:45;;;;;;;;;;;;;;;4.63;100.00;101194.81;6183824;23;19912;-78
2023/11/16 06:30:12;;;;;;;;;;;;;;;4.67;100.00;101193.53;6183378;23;19920;-78
2023/11/16 06:32:38;;;;;;;;;;;;;;;4.69;100.00;101196.03;6182988;23;19916;-79
2023/11/16 06:35:03;;;;;;;;;;;;;;;4.68;100.00;101197.88;6182918;23;20259;-78
2023/11/16 06:37:28;;;;;;;;;;;;;;;4.70;100.00;101195.03;6181691;23;19970;-80
2023/11/16 06:39:54;;;;;;;;;;;;;;;4.63;100.00;101191.31;6182927;23;20000;-81
2023/11/16 06:42:20;;;;;;;;;;;;;;;4.57;100.00;101186.56;6183684;23;19913;-80
2023/11/16 06:44:48;;;;;;;;;;;;;;;4.53;100.00;101186.03;6183301;23;20245;-80
2023/11/16 06:47:15;;;;;;;;;;;;;;;4.48;100.00;101183.81;6183954;23;20182;-82
2023/11/16 06:52:21;;;;;;;;;;;;;;;4.59;100.00;101189.94;6185243;22;19924;-81
2023/11/16 06:58:31;;;;;;;;;;;;;;;4.59;100.00;101190.75;6112362;23;19920;-81
2023/11/16 07:01:04;;;;;;;;;;;;;;;4.60;100.00;101187.09;6184953;23;19967;-79
2023/11/16 07:03:29;;;;;;;;;;;;;;;4.63;100.00;101178.81;6175012;23;19916;-80
2023/11/16 07:05:54;;;;;;;;;;;;;;;4.59;100.00;101182.75;6184891;23;20351;-79
2023/11/16 07:08:20;;;;;;;;;;;;;;;4.53;100.00;101186.03;6183254;23;19912;-79
2023/11/16 07:11:00;;;;;;;;;;;;;;;4.51;100.00;101182.69;6183892;23;19912;-78
2023/11/16 07:19:44;;;;;;;;;;;;;;;4.50;100.00;101179.16;6185299;23;19959;-80
2023/11/16 07:22:22;;;;;;;;;;;;;;;4.56;100.00;101177.75;6186486;23;19955;-81
2023/11/16 07:25:24;;;;;;;;;;;;;;;4.55;100.00;101181.41;6184931;23;19944;-79
2023/11/16 07:36:47;;;;;;;;;;;;;;;4.88;100.00;101152.41;6192536;23;19924;-77
2023/11/16 07:39:25;;;;;;;;;;;;;;;5.10;100.00;101148.44;6194495;23;19923;-81
2023/11/16 07:41:53;;;;;;;;;;;;;;;5.18;100.00;101144.97;6186341;23;19939;-78
2023/11/16 07:44:27;;;;;;;;;;;;;;;5.13;100.00;101137.44;6186664;23;19952;-81
2023/11/16 07:50:29;;;;;;;;;;;;;;;5.72;100.00;101144.03;6185386;23;20318;-80
2023/11/16 07:56:05;;;;;;;;;;;;;;;6.02;100.00;101144.56;6185022;23;19919;-79
2023/11/16 07:58:31;;;;;;;;;;;;;;;5.95;100.00;101146.16;6165459;23;19912;-80
2023/11/16 08:01:04;;;;;;;;;;;;;;;5.87;100.00;101138.94;6180355;23;19927;-79
2023/11/16 08:03:42;;;;;;;;;;;;;;;5.88;100.00;101145.97;6181625;23;20330;-79
2023/11/16 08:06:12;;;;;;;;;;;;;;;5.71;100.00;101158.38;6185753;23;19987;-80
2023/11/16 08:08:37;;;;;;;;;;;;;;;5.72;100.00;101154.72;6184013;23;19912;-80
2023/11/16 08:11:06;;;;;;;;;;;;;;;5.82;100.00;101144.78;6194608;23;20064;-80
2023/11/16 08:13:32;;;;;;;;;;;;;;;5.95;100.00;101148.84;6187427;23;20356;-79
2023/11/16 08:15:59;;;;;;;;;;;;;;;5.92;100.00;101150.84;6187002;23;19916;-80
2023/11/16 08:18:26;;;;;;;;;;;;;;;5.93;100.00;101146.31;6185811;23;19940;-80
2023/11/16 08:20:51;;;;;;;;;;;;;;;6.00;100.00;101151.91;6187302;23;20005;-79
2023/11/16 08:23:18;;;;;;;;;;;;;;;6.02;100.00;101139.22;6184259;23;19912;-79
2023/11/16 08:25:46;;;;;;;;;;;;;;;6.02;100.00;101141.88;6183813;23;19919;-79
2023/11/16 08:28:14;;;;;;;;;;;;;;;6.13;100.00;101148.78;6185384;23;19955;-79
2023/11/16 08:30:41;;;;;;;;;;;;;;;6.30;100.00;101147.03;6184519;23;19920;-79
2023/11/16 08:33:08;;;;;;;;;;;;;;;6.44;100.00;101151.75;6184246;23;19983;-79
2023/11/16 08:35:37;;;;;;;;;;;;;;;6.53;100.00;101148.09;6184516;23;19913;-79
2023/11/16 08:38:02;;;;;;;;;;;;;;;6.57;100.00;101145.09;6184359;23;19916;-79
2023/11/16 08:40:29;;;;;;;;;;;;;;;6.70;100.00;101145.47;6183975;23;20210;-79
2023/11/16 08:42:57;;;;;;;;;;;;;;;6.58;100.00;101144.09;6185226;23;19986;-79
2023/11/16 08:45:24;;;;;;;;;;;;;;;6.47;100.00;101147.91;6186425;23;19916;-79
2023/11/16 08:47:57;;;;;;;;;;;;;;;6.38;100.00;101136.34;6188183;23;19947;-79
2023/11/16 08:50:22;;;;;;;;;;;;;;;6.31;100.00;101133.47;6183642;23;20337;-79
2023/11/16 08:52:47;;;;;;;;;;;;;;;6.25;100.00;101120.78;6183755;23;19916;-79
2023/11/16 08:55:13;;;;;;;;;;;;;;;6.19;100.00;101114.22;6183829;23;19917;-79
2023/11/16 08:57:39;;;;;;;;;;;;;;;6.16;100.00;101109.22;6184450;23;19913;-79
2023/11/16 09:00:27;;;;;;;;;;;;;;;6.16;100.00;101119.91;6184764;23;20007;-79
2023/11/16 09:02:54;;;;;;;;;;;;;;;6.09;100.00;101116.19;6184719;23;19912;-79
2023/11/16 09:05:19;;;;;;;;;;;;;;;6.02;100.00;101115.16;6184708;23;19959;-79
2023/11/16 09:07:44;;;;;;;;;;;;;;;6.04;100.00;101123.84;6183679;23;19913;-79
2023/11/16 09:10:19;;;;;;;;;;;;;;;6.03;100.00;101119.50;6187014;23;19956;-79
2023/11/16 09:12:45;;;;;;;;;;;;;;;5.99;100.00;101123.47;6191543;23;20338;-79
2023/11/16 09:15:10;;;;;;;;;;;;;;;5.95;100.00;101127.47;6193815;23;19952;-79
2023/11/16 09:17:36;;;;;;;;;;;;;;;6.07;100.00;101120.88;6201428;23;19916;-79
2023/11/16 09:20:04;;;;;;;;;;;;;;;6.01;100.00;101126.84;6197855;23;19916;-80
2023/11/16 09:22:30;;;;;;;;;;;;;;;6.01;100.00;101110.81;6184469;23;19912;-79
2023/11/16 09:24:57;;;;;;;;;;;;;;;6.01;100.00;101103.63;6183520;23;19958;-79
2023/11/16 09:27:26;;;;;;;;;;;;;;;6.06;100.00;101104.00;6185901;23;19976;-80
2023/11/16 09:33:22;;;;;;;;;;;;;;;6.09;100.00;101096.66;6183273;23;20364;-79
2023/11/16 09:36:19;;;;;;;;;;;;;;;6.13;100.00;101098.00;6179607;23;20293;-79
2023/11/16 09:38:57;;;;;;;;;;;;;;;6.19;100.00;101103.53;6182731;23;19995;-79
2023/11/16 09:41:36;;;;;;;;;;;;;;;6.19;100.00;101095.50;6184288;23;20349;-79
2023/11/16 09:44:21;;;;;;;;;;;;;;;6.22;100.00;101091.69;6158434;23;19990;-79
2023/11/16 09:47:02;;;;;;;;;;;;;;;6.18;100.00;101107.19;6182894;23;20214;-78
2023/11/16 09:49:30;;;;;;;;;;;;;;;6.14;100.00;101095.19;6146851;23;19919;-79
2023/11/16 09:51:55;;;;;;;;;;;;;;;6.28;100.00;101100.91;6158455;23;19974;-79
2023/11/16 09:54:22;;;;;;;;;;;;;;;6.30;100.00;101098.91;6156562;23;19916;-79
2023/11/16 09:56:48;;;;;;;;;;;;;;;6.28;100.00;101098.22;6163292;23;19912;-79
2023/11/16 09:59:14;;;;;;;;;;;;;;;6.29;100.00;101091.88;6213636;23;20284;-79
2023/11/16 10:01:45;;;;;;;;;;;;;;;6.32;100.00;101096.91;6212663;23;20213;-79
2023/11/16 10:04:10;;;;;;;;;;;;;;;6.36;100.00;101092.88;6213600;23;19958;-79
2023/11/16 10:06:37;;;;;;;;;;;;;;;6.37;100.00;101098.09;6212644;23;19912;-79
2023/11/16 10:09:10;;;;;;;;;;;;;;;6.40;100.00;101093.41;6213631;23;19912;-79
2023/11/16 10:11:35;;;;;;;;;;;;;;;6.44;100.00;101098.25;6214426;23;19979;-79
2023/11/16 10:14:00;;;;;;;;;;;;;;;6.35;100.00;101100.09;6213450;23;20252;-79
2023/11/16 10:16:26;;;;;;;;;;;;;;;6.34;100.00;101094.91;6213491;23;20240;-79
2023/11/16 10:18:58;;;;;;;;;;;;;;;6.31;100.00;101092.56;6214084;23;19991;-79
2023/11/16 10:21:23;;;;;;;;;;;;;;;6.32;100.00;101087.03;6213108;23;19912;-79
2023/11/16 10:23:51;;;;;;;;;;;;;;;6.46;100.00;101079.38;6212826;23;19918;-79
2023/11/16 10:26:17;;;;;;;;;;;;;;;6.50;100.00;101081.56;6214751;23;19919;-79
2023/11/16 10:28:43;;;;;;;;;;;;;;;6.48;100.00;101080.91;6214506;23;19911;-79
2023/11/16 10:31:08;;;;;;;;;;;;;;;6.58;100.00;101074.53;6215387;23;20062;-79
2023/11/16 10:33:34;;;;;;;;;;;;;;;6.52;100.00;101073.38;6216135;23;19992;-79
2023/11/16 10:36:00;;;;;;;;;;;;;;;6.45;100.00;101067.84;6195634;23;20349;-79
2023/11/16 10:38:29;;;;;;;;;;;;;;;6.39;100.00;101068.50;6184521;23;20340;-79
2023/11/16 10:40:54;;;;;;;;;;;;;;;6.44;100.00;101074.19;6185895;23;19916;-78
2023/11/16 10:43:22;;;;;;;;;;;;;;;6.36;100.00;101074.16;6185405;23;19919;-79
2023/11/16 10:45:48;;;;;;;;;;;;;;;6.39;100.00;101068.50;6184873;23;20268;-79
2023/11/16 10:48:13;;;;;;;;;;;;;;;6.35;100.00;101064.50;6159260;23;20090;-79
2023/11/16 10:50:42;;;;;;;;;;;;;;;6.35;100.00;101059.16;6185370;23;19913;-79
2023/11/16 10:53:12;;;;;;;;;;;;;;;6.30;100.00;101054.28;6185704;23;19909;-78
2023/11/16 10:55:44;;;;;;;;;;;;;;;6.40;100.00;101048.78;6159040;23;19912;-78
2023/11/16 10:58:09;;;;;;;;;;;;;;;6.40;100.00;101040.75;6185827;23;19939;-78
2023/11/16 11:00:35;;;;;;;;;;;;;;;6.38;100.00;101037.41;6184497;23;20266;-78
2023/11/16 11:03:01;;;;;;;;;;;;;;;6.41;100.00;101031.72;6184883;23;20301;-78
2023/11/16 11:05:29;;;;;;;;;;;;;;;6.42;100.00;101029.91;6185648;23;19915;-80
2023/11/16 11:07:55;;;;;;;;;;;;;;;6.48;100.00;101015.84;6185205;23;19913;-80
2023/11/16 11:10:24;;;;;;;;;;;;;;;6.39;100.00;101028.38;6185093;23;19912;-80
2023/11/16 11:12:49;;;;;;;;;;;;;;;6.48;100.00;101024.72;6185872;23;19912;-80
2023/11/16 11:15:25;;;;;;;;;;;;;;;6.53;100.00;101008.19;6186249;23;19947;-80
2023/11/16 11:17:54;;;;;;;;;;;;;;;6.53;100.00;101003.66;6186577;23;19916;-80
2023/11/16 11:20:40;;;;;;;;;;;;;;;6.64;100.00;100991.78;6186914;23;19912;-80
2023/11/16 11:23:06;;;;;;;;;;;;;;;6.62;100.00;100990.28;6185364;23;19987;-80
2023/11/16 11:25:32;;;;;;;;;;;;;;;6.61;100.00;100988.63;6185092;23;19919;-80
2023/11/16 11:27:57;;;;;;;;;;;;;;;6.62;100.00;100984.94;6185148;23;20264;-80
2023/11/16 11:30:26;;;;;;;;;;;;;;;6.64;100.00;100982.94;6184772;23;20157;-79
2023/11/16 11:32:52;;;;;;;;;;;;;;;6.70;100.00;100978.75;6186409;23;19914;-79
2023/11/16 11:35:17;;;;;;;;;;;;;;;6.68;100.00;100978.94;6187436;23;20338;-79
2023/11/16 11:37:46;;;;;;;;;;;;;;;6.68;100.00;100974.41;6187106;23;19967;-80
2023/11/16 11:40:14;;;;;;;;;;;;;;;6.70;100.00;100966.22;6187014;23;19971;-79
2023/11/16 11:42:42;;;;;;;;;;;;;;;6.85;100.00;100968.22;6188969;23;19912;-80
2023/11/16 11:45:07;;;;;;;;;;;;;;;6.81;100.00;100952.50;6185845;23;19908;-80
2023/11/16 11:47:32;;;;;;;;;;;;;;;6.88;100.00;100960.66;6187234;23;19912;-80
2023/11/16 11:49:58;;;;;;;;;;;;;;;6.95;100.00;100950.97;6185321;23;19917;-80
2023/11/16 11:52:24;;;;;;;;;;;;;;;6.80;100.00;100947.28;6185121;23;19917;-80
2023/11/16 11:54:50;;;;;;;;;;;;;;;6.83;100.00;100944.28;6185649;23;19912;-80
2023/11/16 11:57:16;;;;;;;;;;;;;;;6.87;100.00;100936.78;6186892;23;19912;-78
2023/11/16 11:59:41;;;;;;;;;;;;;;;6.99;100.00;100940.75;6184583;23;19912;-78
2023/11/16 12:02:07;;;;;;;;;;;;;;;6.93;100.00;100936.91;6184930;23;20160;-79
2023/11/16 12:04:39;;;;;;;;;;;;;;;6.89;100.00;100929.38;6184723;23;19983;-79
2023/11/16 12:07:08;;;;;;;;;;;;;;;6.77;100.00;100929.75;6183801;23;19917;-79
2023/11/16 12:09:36;;;;;;;;;;;;;;;6.72;100.00;100932.09;6184607;23;19971;-78
2023/11/16 12:12:03;;;;;;;;;;;;;;;6.75;100.00;100929.06;6186818;23;19956;-78
2023/11/16 12:14:32;;;;;;;;;;;;;;;6.78;100.00;100931.41;6184812;23;19935;-79
2023/11/16 12:16:57;;;;;;;;;;;;;;;6.80;100.00;100924.06;6186535;23;20325;-79
2023/11/16 12:19:22;;;;;;;;;;;;;;;6.80;100.00;100918.72;6158771;23;19942;-78
2023/11/16 12:21:50;;;;;;;;;;;;;;;6.77;100.00;100912.88;6184192;23;19958;-78
2023/11/16 12:24:16;;;;;;;;;;;;;;;6.65;100.00;100915.06;6184717;23;19913;-79
2023/11/16 12:26:41;;;;;;;;;;;;;;;6.59;100.00;100905.88;6185214;23;19988;-78
2023/11/16 12:29:17;;;;;;;;;;;;;;;6.68;100.00;100906.69;6184099;23;19991;-78
2023/11/16 12:31:43;;;;;;;;;;;;;;;6.65;100.00;100893.66;6183788;23;20333;-78
2023/11/16 12:34:09;;;;;;;;;;;;;;;6.70;100.00;100891.31;6184828;23;20313;-78
2023/11/16 12:36:35;;;;;;;;;;;;;;;6.70;100.00;100885.97;6157220;23;19924;-78
2023/11/16 12:39:10;;;;;;;;;;;;;;;6.70;100.00;100887.78;6186048;23;20344;-78
2023/11/16 12:41:38;;;;;;;;;;;;;;;6.73;100.00;100884.78;6185372;23;19999;-78
2023/11/16 12:44:06;;;;;;;;;;;;;;;6.64;100.00;100881.28;6186268;23;19920;-78
2023/11/16 12:46:32;;;;;;;;;;;;;;;6.57;100.00;100877.59;6183551;23;19928;-78
2023/11/16 12:49:00;;;;;;;;;;;;;;;6.52;100.00;100870.09;6183996;23;19913;-78
2023/11/16 12:51:27;;;;;;;;;;;;;;;6.50;100.00;100872.97;6157798;23;19932;-78
2023/11/16 12:53:52;;;;;;;;;;;;;;;6.45;100.00;100867.28;6184381;23;19987;-78
2023/11/16 12:56:19;;;;;;;;;;;;;;;6.50;100.00;100862.25;6185077;23;19944;-78
2023/11/16 12:58:45;;;;;;;;;;;;;;;6.53;100.00;100856.53;6184390;23;19912;-79
2023/11/16 13:01:12;;;;;;;;;;;;;;;6.57;100.00;100862.41;6185493;23;19919;-79
2023/11/16 13:03:38;;;;;;;;;;;;;;;6.50;100.00;100858.75;6187217;23;19912;-79
2023/11/16 13:06:03;;;;;;;;;;;;;;;6.53;100.00;100848.53;6161760;23;20336;-79
2023/11/16 13:08:29;;;;;;;;;;;;;;;6.53;100.00;100850.38;6189799;23;19913;-79
2023/11/16 13:10:54;;;;;;;;;;;;;;;6.53;100.00;100845.03;6192088;23;19923;-77
2023/11/16 13:13:19;;;;;;;;;;;;;;;6.52;100.00;100841.53;6175836;23;19916;-79
2023/11/16 13:15:44;;;;;;;;;;;;;;;6.55;100.00;100826.13;6185813;23;19917;-78
2023/11/16 13:18:12;;;;;;;;;;;;;;;6.52;100.00;100832.66;6186819;23;19952;-79
2023/11/16 13:20:37;;;;;;;;;;;;;;;6.45;100.00;100826.31;6200935;23;20138;-77
2023/11/16 13:23:03;;;;;;;;;;;;;;;6.43;100.00;100814.97;6197745;23;20353;-79
2023/11/16 13:25:28;;;;;;;;;;;;;;;6.35;100.00;100811.31;6183881;23;19990;-79
2023/11/16 13:27:53;;;;;;;;;;;;;;;6.41;100.00;100803.63;6183757;23;19924;-78
2023/11/16 13:30:18;;;;;;;;;;;;;;;6.41;100.00;100796.41;6184109;23;19916;-78
2023/11/16 13:32:44;;;;;;;;;;;;;;;6.48;100.00;100805.44;6182057;23;19916;-78
2023/11/16 13:35:10;;;;;;;;;;;;;;;6.40;100.00;100799.28;6183722;23;19916;-78
2023/11/16 13:37:40;;;;;;;;;;;;;;;6.42;100.00;100798.09;6182567;23;20324;-78
2023/11/16 13:40:11;;;;;;;;;;;;;;;6.40;100.00;100799.28;6184133;23;19908;-78
2023/11/16 13:42:38;;;;;;;;;;;;;;;6.39;100.00;100797.59;6183172;23;20340;-78